Time;durP1;ratioP1;P1;durP2;ratioP2;P2;SDS_P1;SDS_P2;PMS_P1;PMS_P2;Temp;Humidity;BMP_temperature;BMP_pressure;BME280_temperature;BME280_humidity;BME280_pressure;Samples;Min_cycle;Max_cycle;Signal;HPM_P1;HPM_P2
2020/12/19 00:00:59;;;;;;;8.53;7.00;;;7.40;1.00;;;;;;5014575;28;20489;-65
2020/12/19 00:03:25;;;;;;;9.30;7.28;;;7.40;1.00;;;;;;5014178;28;20416;-65
2020/12/19 00:05:51;;;;;;;7.93;7.10;;;7.40;1.00;;;;;;5014059;28;20409;-65
2020/12/19 00:08:17;;;;;;;10.60;6.80;;;7.40;1.00;;;;;;5014040;28;20416;-64
2020/12/19 00:10:43;;;;;;;9.37;7.70;;;7.40;1.00;;;;;;5014005;28;20447;-64
2020/12/19 00:13:09;;;;;;;10.02;7.35;;;7.30;1.00;;;;;;5013953;28;20484;-65
2020/12/19 00:15:35;;;;;;;9.80;7.30;;;7.30;1.00;;;;;;5013493;28;20416;-64
2020/12/19 00:18:02;;;;;;;10.20;6.85;;;7.30;1.00;;;;;;5013803;28;20763;-64
2020/12/19 00:20:29;;;;;;;8.25;7.25;;;7.40;1.00;;;;;;5013946;28;20479;-65
2020/12/19 00:22:55;;;;;;;8.43;6.90;;;7.40;1.00;;;;;;5013642;28;20412;-65
2020/12/19 00:25:21;;;;;;;9.00;6.78;;;7.40;1.00;;;;;;5013801;28;20420;-65
2020/12/19 00:27:47;;;;;;;8.55;6.97;;;7.50;1.00;;;;;;5013849;28;20474;-65
2020/12/19 00:30:13;;;;;;;9.55;6.85;;;7.50;1.00;;;;;;5013635;28;20436;-65
2020/12/19 00:32:40;;;;;;;6.97;5.75;;;7.60;1.00;;;;;;5013282;28;20436;-64
2020/12/19 00:35:08;;;;;;;7.53;6.13;;;7.60;1.00;;;;;;5013559;28;20470;-65
2020/12/19 00:37:39;;;;;;;7.00;5.97;;;7.60;1.00;;;;;;5014215;28;20420;-64
2020/12/19 00:40:05;;;;;;;7.53;6.43;;;7.70;1.00;;;;;;5013725;28;20412;-64
2020/12/19 00:42:31;;;;;;;7.40;6.10;;;7.70;1.00;;;;;;5013367;28;20440;-65
2020/12/19 00:44:57;;;;;;;8.30;5.82;;;7.70;1.00;;;;;;5013343;28;20469;-65
2020/12/19 00:47:23;;;;;;;7.30;6.50;;;7.80;1.00;;;;;;5013546;28;20908;-65
2020/12/19 00:49:49;;;;;;;6.60;5.90;;;7.80;1.00;;;;;;5012981;28;20416;-65
2020/12/19 00:52:20;;;;;;;7.03;6.17;;;7.80;1.00;;;;;;5013394;28;20793;-65
2020/12/19 00:54:46;;;;;;;7.15;5.97;;;7.80;1.00;;;;;;5013110;28;20533;-65
2020/12/19 00:57:12;;;;;;;5.82;5.22;;;7.90;1.00;;;;;;5013839;28;20431;-64
2020/12/19 00:59:38;;;;;;;6.87;5.90;;;7.90;1.00;;;;;;5013451;28;20869;-64
2020/12/19 01:02:04;;;;;;;6.18;5.47;;;7.90;1.00;;;;;;5013349;28;20416;-64
2020/12/19 01:04:30;;;;;;;6.50;5.80;;;7.90;1.00;;;;;;5016729;28;20417;-64
2020/12/19 01:06:56;;;;;;;6.85;6.13;;;7.90;1.00;;;;;;5013064;28;20954;-65
2020/12/19 01:09:23;;;;;;;7.55;6.50;;;7.90;1.00;;;;;;5013518;28;20460;-64
2020/12/19 01:11:49;;;;;;;6.82;5.60;;;7.90;1.00;;;;;;5013367;28;20797;-64
2020/12/19 01:14:15;;;;;;;8.23;6.20;;;7.90;1.00;;;;;;5012616;28;20894;-64
2020/12/19 01:16:41;;;;;;;6.95;6.18;;;7.80;1.00;;;;;;5012724;28;20423;-65
2020/12/19 01:19:08;;;;;;;8.60;6.38;;;7.90;1.00;;;;;;5012402;28;20423;-64
2020/12/19 01:21:34;;;;;;;7.82;6.32;;;8.00;1.00;;;;;;5012601;28;20911;-65
2020/12/19 01:24:01;;;;;;;5.75;5.15;;;7.90;1.00;;;;;;5012502;28;20426;-65
2020/12/19 01:26:28;;;;;;;6.88;6.13;;;8.00;1.00;;;;;;5012580;28;20463;-64
2020/12/19 01:28:54;;;;;;;8.53;5.90;;;8.00;1.00;;;;;;5012562;28;20421;-64
2020/12/19 01:31:22;;;;;;;6.97;5.80;;;8.00;1.00;;;;;;5012264;28;20833;-65
2020/12/19 01:33:48;;;;;;;8.27;6.93;;;7.90;1.00;;;;;;5012551;28;20420;-65
2020/12/19 01:36:19;;;;;;;7.85;6.18;;;7.90;1.00;;;;;;5012799;28;20421;-65
2020/12/19 01:38:45;;;;;;;8.50;7.00;;;7.90;1.00;;;;;;5012722;28;20416;-65
2020/12/19 01:41:11;;;;;;;7.50;6.18;;;8.00;1.00;;;;;;5012334;28;20446;-65
2020/12/19 01:43:47;;;;;;;8.48;6.75;;;7.90;1.00;;;;;;5012538;28;20840;-65
2020/12/19 01:46:26;;;;;;;7.63;6.88;;;7.90;1.00;;;;;;5012358;28;20417;-64
2020/12/19 01:48:53;;;;;;;9.03;7.30;;;7.80;1.00;;;;;;5012494;28;20416;-65
2020/12/19 01:51:19;;;;;;;8.60;7.20;;;7.80;1.00;;;;;;5012344;28;20420;-65
2020/12/19 01:53:46;;;;;;;8.03;7.23;;;7.80;1.00;;;;;;5012633;28;20412;-65
2020/12/19 01:56:13;;;;;;;8.13;7.35;;;7.80;1.00;;;;;;5012666;28;20442;-66
2020/12/19 01:58:39;;;;;;;8.93;6.97;;;7.70;1.00;;;;;;5012524;28;20838;-65
2020/12/19 02:01:09;;;;;;;9.40;6.82;;;7.70;1.00;;;;;;5012171;28;20881;-65
2020/12/19 02:03:36;;;;;;;7.70;6.70;;;7.80;1.00;;;;;;5012554;28;20478;-66
2020/12/19 02:06:05;;;;;;;8.30;7.05;;;7.80;1.00;;;;;;5012280;28;20420;-65
2020/12/19 02:08:31;;;;;;;7.75;7.05;;;7.80;1.00;;;;;;5012862;28;20466;-66
2020/12/19 02:10:57;;;;;;;9.30;6.40;;;7.80;1.00;;;;;;5011892;28;20490;-66
2020/12/19 02:13:23;;;;;;;9.27;7.70;;;7.80;1.00;;;;;;5011415;28;20994;-66
2020/12/19 02:15:49;;;;;;;8.68;7.53;;;7.70;1.00;;;;;;5011511;28;20420;-66
2020/12/19 02:18:16;;;;;;;8.10;6.80;;;7.70;1.00;;;;;;5011793;28;20417;-66
2020/12/19 02:20:42;;;;;;;7.68;6.88;;;7.70;1.00;;;;;;5011745;28;20762;-65
2020/12/19 02:23:09;;;;;;;8.75;7.30;;;7.60;1.00;;;;;;5011437;28;20423;-66
2020/12/19 02:25:37;;;;;;;9.57;6.72;;;7.60;1.00;;;;;;5011669;28;20416;-65
2020/12/19 02:28:05;;;;;;;8.07;6.95;;;7.70;1.00;;;;;;5011356;28;20840;-66
2020/12/19 02:30:31;;;;;;;8.30;7.50;;;7.70;1.00;;;;;;5011634;28;20470;-65
2020/12/19 02:32:58;;;;;;;8.50;7.20;;;7.70;1.00;;;;;;5011382;28;20499;-65
2020/12/19 02:35:24;;;;;;;8.70;7.60;;;7.70;1.00;;;;;;5011333;28;20446;-65
2020/12/19 02:37:50;;;;;;;9.52;7.95;;;7.70;1.00;;;;;;5011503;28;20421;-65
2020/12/19 02:40:17;;;;;;;8.47;7.47;;;7.70;1.00;;;;;;5010479;28;20464;-66
2020/12/19 02:42:44;;;;;;;10.00;7.55;;;7.60;1.00;;;;;;5011259;28;20413;-65
2020/12/19 02:45:11;;;;;;;8.65;7.28;;;7.60;1.00;;;;;;5011280;28;20412;-65
2020/12/19 02:47:37;;;;;;;8.43;7.30;;;7.70;1.00;;;;;;5011359;28;20408;-66
2020/12/19 02:50:04;;;;;;;9.80;7.40;;;7.70;1.00;;;;;;5011322;28;20483;-66
2020/12/19 02:52:31;;;;;;;8.57;7.68;;;7.70;1.00;;;;;;5011180;28;20952;-65
2020/12/19 02:54:57;;;;;;;8.68;7.88;;;7.60;1.00;;;;;;5011040;28;20778;-65
2020/12/19 02:57:23;;;;;;;9.02;8.07;;;7.60;1.00;;;;;;5011165;28;20774;-65
2020/12/19 02:59:50;;;;;;;9.13;8.23;;;7.60;1.00;;;;;;5011300;28;20417;-65
2020/12/19 03:02:16;;;;;;;8.40;7.32;;;7.70;1.00;;;;;;5011044;28;20417;-65
2020/12/19 03:04:42;;;;;;;9.23;8.20;;;7.70;1.00;;;;;;5011126;28;20470;-65
2020/12/19 03:07:08;;;;;;;8.85;7.63;;;7.70;1.00;;;;;;5011103;28;20478;-66
2020/12/19 03:09:34;;;;;;;9.63;7.90;;;7.80;1.00;;;;;;5010772;28;20837;-66
2020/12/19 03:12:02;;;;;;;9.25;8.25;;;7.70;1.00;;;;;;5011173;28;20455;-65
2020/12/19 03:14:29;;;;;;;8.90;8.00;;;7.80;1.00;;;;;;5011859;28;20492;-66
2020/12/19 03:16:56;;;;;;;8.63;7.75;;;7.80;1.00;;;;;;5011309;28;20425;-65
2020/12/19 03:19:22;;;;;;;8.50;7.32;;;7.80;1.00;;;;;;5010863;28;20413;-65
2020/12/19 03:21:48;;;;;;;7.63;6.93;;;7.80;1.00;;;;;;5010947;28;20467;-65
2020/12/19 03:24:14;;;;;;;10.23;7.47;;;7.80;1.00;;;;;;5010791;28;20420;-65
2020/12/19 03:26:40;;;;;;;8.73;7.85;;;7.80;1.00;;;;;;5010886;28;20819;-66
2020/12/19 03:29:06;;;;;;;9.35;8.40;;;7.70;1.00;;;;;;5010796;28;20951;-66
2020/12/19 03:31:32;;;;;;;10.00;7.95;;;7.70;1.00;;;;;;5010727;28;20430;-66
2020/12/19 03:33:59;;;;;;;9.60;8.10;;;7.80;1.00;;;;;;5010912;28;20413;-65
2020/12/19 03:36:25;;;;;;;11.82;8.40;;;7.80;1.00;;;;;;5010683;28;20416;-66
2020/12/19 03:38:51;;;;;;;11.10;8.27;;;7.90;1.00;;;;;;5010877;28;20412;-66
2020/12/19 03:41:18;;;;;;;9.65;8.38;;;7.90;1.00;;;;;;5010738;28;21050;-66
2020/12/19 03:43:44;;;;;;;8.60;7.70;;;7.90;1.00;;;;;;5010613;28;20425;-65
2020/12/19 03:46:11;;;;;;;9.95;8.27;;;8.00;1.00;;;;;;5010681;28;20420;-65
2020/12/19 03:48:37;;;;;;;9.23;7.80;;;7.90;1.00;;;;;;5010767;28;20423;-65
2020/12/19 03:51:04;;;;;;;10.48;8.80;;;7.90;1.00;;;;;;5010502;28;20409;-65
2020/12/19 03:53:31;;;;;;;10.32;8.73;;;7.90;1.00;;;;;;5014403;28;20428;-65
2020/12/19 03:55:57;;;;;;;10.35;8.77;;;7.90;1.00;;;;;;5016106;28;20897;-66
2020/12/19 03:58:23;;;;;;;11.80;9.70;;;7.90;1.00;;;;;;5014333;28;20428;-65
2020/12/19 04:00:49;;;;;;;11.10;9.30;;;7.80;1.00;;;;;;5014249;28;20439;-66
2020/12/19 04:03:15;;;;;;;10.55;8.40;;;7.80;1.00;;;;;;5014168;28;20417;-66
2020/12/19 04:05:41;;;;;;;11.25;9.38;;;7.80;1.00;;;;;;5014549;28;20417;-65
2020/12/19 04:08:08;;;;;;;10.55;9.18;;;7.80;1.00;;;;;;5014031;28;20428;-65
2020/12/19 04:10:35;;;;;;;11.43;9.37;;;7.80;1.00;;;;;;5014253;28;20503;-66
2020/12/19 04:13:01;;;;;;;12.27;9.27;;;7.80;1.00;;;;;;5014044;28;20432;-66
2020/12/19 04:15:28;;;;;;;9.52;8.32;;;7.80;1.00;;;;;;5013905;28;20420;-66
2020/12/19 04:17:54;;;;;;;10.40;9.23;;;7.90;1.00;;;;;;5013733;28;20416;-65
2020/12/19 04:20:21;;;;;;;10.73;9.18;;;7.80;1.00;;;;;;5013746;28;20782;-66
2020/12/19 04:22:47;;;;;;;12.02;9.50;;;7.80;1.00;;;;;;5013949;28;20413;-66
2020/12/19 04:25:14;;;;;;;10.98;9.27;;;7.80;1.00;;;;;;5013492;28;20421;-65
2020/12/19 04:27:41;;;;;;;11.40;9.50;;;7.80;1.00;;;;;;5014087;28;20809;-65
2020/12/19 04:30:09;;;;;;;11.18;9.50;;;7.80;1.00;;;;;;5013366;28;20479;-65
2020/12/19 04:32:35;;;;;;;10.20;8.77;;;7.70;1.00;;;;;;5013657;28;20433;-65
2020/12/19 04:35:03;;;;;;;13.98;10.88;;;7.70;1.00;;;;;;5013323;28;20797;-65
2020/12/19 04:37:29;;;;;;;12.95;10.80;;;7.60;1.00;;;;;;5013742;28;20412;-66
2020/12/19 04:39:55;;;;;;;12.80;11.50;;;7.60;1.00;;;;;;5013652;28;20813;-65
2020/12/19 04:42:23;;;;;;;11.73;10.10;;;7.60;1.00;;;;;;5013152;28;20889;-66
2020/12/19 04:44:50;;;;;;;12.93;10.10;;;7.60;1.00;;;;;;5013510;28;20490;-66
2020/12/19 04:47:17;;;;;;;12.40;10.83;;;7.60;1.00;;;;;;5013075;28;20420;-65
2020/12/19 04:49:45;;;;;;;12.70;10.65;;;7.60;1.00;;;;;;5013189;28;20412;-65
2020/12/19 04:52:11;;;;;;;14.97;11.67;;;7.50;1.00;;;;;;5013221;28;20428;-65
2020/12/19 04:54:37;;;;;;;14.20;10.98;;;7.50;1.00;;;;;;5013328;28;20474;-66
2020/12/19 04:57:04;;;;;;;11.65;10.25;;;7.50;1.00;;;;;;5013355;28;20416;-66
2020/12/19 04:59:31;;;;;;;11.57;10.38;;;7.40;1.00;;;;;;5012962;28;20905;-66
2020/12/19 05:01:59;;;;;;;12.27;10.80;;;7.40;1.00;;;;;;5012948;28;20408;-66
2020/12/19 05:04:25;;;;;;;14.52;11.30;;;7.30;1.00;;;;;;5012839;28;20475;-65
2020/12/19 05:06:51;;;;;;;15.13;11.82;;;7.20;1.00;;;;;;5013065;28;20490;-65
2020/12/19 05:09:17;;;;;;;13.70;10.98;;;7.20;1.00;;;;;;5013009;28;20417;-65
2020/12/19 05:11:43;;;;;;;14.52;11.48;;;7.20;1.00;;;;;;5013038;28;20416;-65
2020/12/19 05:14:09;;;;;;;15.27;10.85;;;7.30;1.00;;;;;;5012758;28;20905;-66
2020/12/19 05:16:36;;;;;;;13.88;11.05;;;7.30;1.00;;;;;;5012534;28;20413;-65
2020/12/19 05:19:08;;;;;;;13.63;10.77;;;7.30;1.00;;;;;;5012970;28;20548;-66
2020/12/19 05:21:43;;;;;;;14.48;11.77;;;7.30;1.00;;;;;;5012692;28;20421;-66
2020/12/19 05:24:14;;;;;;;11.77;10.40;;;7.20;1.00;;;;;;5012706;28;20463;-66
2020/12/19 05:26:41;;;;;;;14.07;11.30;;;7.20;3.40;;;;;;5012721;28;20422;-66
2020/12/19 05:29:07;;;;;;;12.98;11.27;;;7.10;2.80;;;;;;5012368;28;20412;-66
2020/12/19 05:31:34;;;;;;;13.68;11.15;;;7.10;2.90;;;;;;5012703;28;20412;-65
2020/12/19 05:34:01;;;;;;;12.20;10.63;;;7.20;2.60;;;;;;5012310;28;20424;-66
2020/12/19 05:36:28;;;;;;;13.10;11.25;;;7.20;2.80;;;;;;5012564;28;20459;-65
2020/12/19 05:39:00;;;;;;;13.20;10.75;;;7.20;2.40;;;;;;5012259;28;20488;-65
2020/12/19 05:41:26;;;;;;;14.63;11.75;;;7.20;6.60;;;;;;5012334;28;20413;-66
2020/12/19 05:43:53;;;;;;;12.90;10.67;;;7.20;13.70;;;;;;5012325;28;20413;-66
2020/12/19 05:46:27;;;;;;;14.00;11.25;;;7.30;3.70;;;;;;5011951;28;20898;-65
2020/12/19 05:48:53;;;;;;;13.20;11.07;;;7.20;2.80;;;;;;5012405;28;20454;-67
2020/12/19 05:51:20;;;;;;;13.70;11.20;;;7.20;2.90;;;;;;5012005;28;20424;-65
2020/12/19 05:53:51;;;;;;;12.68;11.32;;;7.20;7.90;;;;;;5012070;28;20424;-66
2020/12/19 05:56:18;;;;;;;13.40;10.82;;;7.20;9.90;;;;;;5011774;28;20424;-66
2020/12/19 05:58:47;;;;;;;13.20;11.80;;;7.20;3.50;;;;;;5012458;28;20420;-65
2020/12/19 06:01:15;;;;;;;15.02;12.10;;;7.10;26.90;;;;;;5006888;28;20472;-66
2020/12/19 06:03:45;;;;;;;13.73;11.40;;;7.20;32.40;;;;;;4992135;28;20410;-66
2020/12/19 06:06:12;;;;;;;15.32;12.20;;;7.20;30.90;;;;;;4992278;28;20418;-65
2020/12/19 06:08:40;;;;;;;13.30;11.60;;;7.20;18.30;;;;;;4992184;28;20445;-65
2020/12/19 06:11:09;;;;;;;12.40;11.10;;;7.20;29.50;;;;;;4992516;28;20419;-65
2020/12/19 06:13:38;;;;;;;13.00;10.93;;;7.30;32.80;;;;;;4991542;28;20430;-66
2020/12/19 06:16:08;;;;;;;12.32;11.02;;;7.30;18.00;;;;;;4992103;28;20414;-66
2020/12/19 06:18:44;;;;;;;14.82;12.38;;;7.30;18.90;;;;;;4993448;28;20433;-65
2020/12/19 06:21:11;;;;;;;13.32;11.07;;;7.40;20.60;;;;;;4997195;28;20544;-65
2020/12/19 06:23:39;;;;;;;14.38;11.80;;;7.30;12.20;;;;;;4995768;28;20896;-66
2020/12/19 06:26:06;;;;;;;13.07;10.90;;;7.30;14.00;;;;;;4992746;28;20456;-65
2020/12/19 06:28:46;;;;;;;12.05;10.75;;;7.30;16.40;;;;;;4992579;28;20434;-65
2020/12/19 06:31:14;;;;;;;14.20;11.15;;;7.40;13.80;;;;;;4992128;28;20949;-66
2020/12/19 06:33:42;;;;;;;14.52;11.80;;;7.50;22.50;;;;;;4992129;28;20992;-65
2020/12/19 06:36:17;;;;;;;12.35;10.50;;;7.40;21.30;;;;;;4992098;28;20429;-65
2020/12/19 06:38:46;;;;;;;15.68;11.90;;;7.40;35.30;;;;;;4992636;28;20471;-66
2020/12/19 06:41:40;;;;;;;14.52;11.60;;;7.40;61.00;;;;;;4991785;28;20899;-66
2020/12/19 06:44:08;;;;;;;15.88;11.85;;;7.40;86.20;;;;;;4991844;28;20425;-66
2020/12/19 06:46:35;;;;;;;15.77;11.27;;;7.50;79.00;;;;;;4992111;28;20426;-65
2020/12/19 06:49:37;;;;;;;14.18;11.52;;;7.50;88.60;;;;;;4991919;28;20424;-66
2020/12/19 06:52:07;;;;;;;14.55;12.38;;;7.50;87.80;;;;;;4993643;28;20438;-65
2020/12/19 06:54:35;;;;;;;14.10;12.60;;;7.50;96.60;;;;;;4991426;28;20429;-65
2020/12/19 06:57:03;;;;;;;15.57;12.88;;;7.50;99.90;;;;;;4992015;28;20418;-66
2020/12/19 06:59:30;;;;;;;14.02;12.05;;;7.50;99.90;;;;;;4992450;28;20422;-65
2020/12/19 07:02:20;;;;;;;16.40;12.82;;;7.50;99.90;;;;;;4992637;28;20407;-66
2020/12/19 07:04:46;;;;;;;15.02;13.10;;;7.60;99.90;;;;;;4991619;28;20476;-65
2020/12/19 07:07:15;;;;;;;16.80;12.57;;;7.60;99.90;;;;;;4997787;28;20778;-66
2020/12/19 07:09:42;;;;;;;15.50;12.90;;;7.70;99.90;;;;;;5011609;28;20421;-66
2020/12/19 07:12:33;;;;;;;15.20;11.55;;;7.70;99.90;;;;;;5011699;28;20436;-66
2020/12/19 07:15:00;;;;;;;16.08;12.63;;;7.80;99.90;;;;;;5012194;28;20409;-66
2020/12/19 07:17:28;;;;;;;14.23;11.85;;;7.80;99.90;;;;;;5012273;28;20420;-66
2020/12/19 07:19:58;;;;;;;14.82;12.00;;;7.90;99.90;;;;;;5011910;28;20416;-65
2020/12/19 07:22:24;;;;;;;15.18;12.73;;;7.80;99.90;;;;;;5011538;28;20417;-66
2020/12/19 07:24:52;;;;;;;15.45;12.82;;;7.80;99.90;;;;;;5011629;28;20416;-66
2020/12/19 07:27:18;;;;;;;13.90;11.80;;;7.90;99.90;;;;;;5014781;28;20889;-66
2020/12/19 07:29:44;;;;;;;16.05;12.57;;;8.00;99.90;;;;;;5015062;28;21030;-65
2020/12/19 07:32:11;;;;;;;17.70;13.40;;;8.00;99.90;;;;;;5014973;28;20428;-66
2020/12/19 07:34:37;;;;;;;16.38;12.35;;;8.00;99.90;;;;;;5014867;28;20432;-65
2020/12/19 07:37:03;;;;;;;15.82;12.13;;;8.10;99.90;;;;;;5014930;28;20912;-66
2020/12/19 07:39:29;;;;;;;16.17;12.20;;;8.10;99.90;;;;;;5014849;28;20496;-66
2020/12/19 07:42:05;;;;;;;14.35;12.20;;;8.10;99.90;;;;;;5014545;28;20413;-65
2020/12/19 07:44:32;;;;;;;13.30;11.90;;;8.20;99.90;;;;;;5014484;28;20413;-66
2020/12/19 07:47:00;;;;;;;14.07;12.52;;;8.20;99.90;;;;;;5014494;28;20967;-66
2020/12/19 07:49:35;;;;;;;15.90;12.77;;;8.10;99.90;;;;;;5014584;28;20904;-65
2020/12/19 07:52:10;;;;;;;15.10;11.60;;;8.20;99.90;;;;;;5014387;28;20413;-65
2020/12/19 07:54:37;;;;;;;16.60;12.70;;;8.20;99.90;;;;;;5014225;28;21078;-66
2020/12/19 07:57:05;;;;;;;13.65;11.90;;;8.20;99.90;;;;;;5014606;28;20416;-66
2020/12/19 07:59:33;;;;;;;13.77;11.23;;;8.30;99.90;;;;;;5014517;28;20783;-66
2020/12/19 08:02:03;;;;;;;12.70;10.63;;;8.30;99.90;;;;;;5014391;28;20420;-66
2020/12/19 08:04:30;;;;;;;13.83;11.30;;;8.40;99.90;;;;;;5013989;28;20416;-65
2020/12/19 08:06:57;;;;;;;13.13;11.02;;;8.40;99.90;;;;;;5014316;28;20440;-66
2020/12/19 08:09:23;;;;;;;14.10;12.23;;;8.50;96.30;;;;;;5013856;28;20416;-66
2020/12/19 08:11:50;;;;;;;14.93;11.87;;;8.50;89.50;;;;;;5012210;28;20429;-66
2020/12/19 08:14:18;;;;;;;14.32;11.80;;;8.60;86.70;;;;;;5013715;28;20428;-66
2020/12/19 08:16:45;;;;;;;13.47;11.27;;;8.60;62.10;;;;;;5013645;28;20474;-67
2020/12/19 08:19:17;;;;;;;14.30;11.30;;;8.70;43.50;;;;;;5014194;28;20501;-67
2020/12/19 08:21:47;;;;;;;13.05;11.00;;;8.70;40.00;;;;;;5013854;28;20425;-66
2020/12/19 08:24:13;;;;;;;13.90;11.48;;;8.80;34.00;;;;;;5013509;28;20417;-67
2020/12/19 08:26:39;;;;;;;13.75;11.52;;;8.80;15.30;;;;;;5013762;28;20483;-67
2020/12/19 08:29:06;;;;;;;14.20;11.23;;;8.80;16.60;;;;;;5013865;28;20416;-67
2020/12/19 08:31:38;;;;;;;13.90;11.35;;;8.80;19.10;;;;;;5013867;28;20413;-66
2020/12/19 08:34:07;;;;;;;13.48;11.32;;;8.80;7.60;;;;;;5013467;28;20920;-67
2020/12/19 08:36:33;;;;;;;11.73;10.23;;;8.90;7.70;;;;;;5013248;28;20423;-66
2020/12/19 08:39:13;;;;;;;11.82;10.23;;;8.90;3.80;;;;;;5012881;28;20420;-67
2020/12/19 08:41:39;;;;;;;12.68;10.48;;;8.90;3.80;;;;;;5013466;28;20901;-67
2020/12/19 08:44:05;;;;;;;11.57;10.07;;;8.90;3.90;;;;;;5013267;28;20409;-66
2020/12/19 08:46:31;;;;;;;11.93;10.50;;;9.00;3.80;;;;;;5013375;28;20892;-66
2020/12/19 08:49:02;;;;;;;15.00;10.75;;;9.00;1.00;;;;;;5003447;28;22397;-67
2020/12/19 08:51:28;;;;;;;10.50;9.02;;;9.00;1.00;;;;;;4993130;28;20488;-67
2020/12/19 08:54:10;;;;;;;13.63;10.38;;;9.00;1.00;;;;;;4993883;28;20442;-67
2020/12/19 08:56:36;;;;;;;11.73;10.53;;;9.00;3.00;;;;;;4995357;28;20468;-66
2020/12/19 08:59:02;;;;;;;11.23;8.95;;;9.00;1.00;;;;;;4993528;28;20442;-67
2020/12/19 09:01:31;;;;;;;10.93;9.52;;;9.10;1.00;;;;;;4993222;28;20423;-66
2020/12/19 09:04:09;;;;;;;12.30;10.07;;;9.20;1.00;;;;;;4993345;28;20415;-66
2020/12/19 09:06:46;;;;;;;10.85;9.75;;;9.20;1.00;;;;;;4993434;28;20424;-67
2020/12/19 09:09:17;;;;;;;11.95;9.88;;;9.20;1.00;;;;;;4993569;28;20428;-66
2020/12/19 09:11:43;;;;;;;11.60;9.53;;;9.30;1.00;;;;;;4994865;28;20487;-66
2020/12/19 09:14:11;;;;;;;11.05;9.85;;;9.30;1.00;;;;;;4996404;28;20464;-67
2020/12/19 09:16:47;;;;;;;10.40;8.77;;;9.30;1.00;;;;;;4996404;28;20810;-66
2020/12/19 09:19:14;;;;;;;9.27;8.38;;;9.30;1.00;;;;;;4992721;28;20422;-67
2020/12/19 09:21:41;;;;;;;10.90;9.32;;;9.50;1.00;;;;;;4992757;28;20473;-66
2020/12/19 09:24:07;;;;;;;10.75;9.05;;;9.50;1.00;;;;;;4993646;28;20430;-67
2020/12/19 09:26:33;;;;;;;10.25;8.70;;;9.50;1.00;;;;;;4992888;28;20518;-67
2020/12/19 09:29:01;;;;;;;10.57;9.30;;;9.70;1.00;;;;;;4993732;28;20430;-65
2020/12/19 09:31:28;;;;;;;10.38;8.45;;;9.80;1.00;;;;;;4993377;28;20430;-65
2020/12/19 09:33:55;;;;;;;11.82;9.50;;;9.80;1.00;;;;;;4992635;28;20431;-65
2020/12/19 09:36:22;;;;;;;10.02;8.50;;;9.90;1.00;;;;;;4992666;28;20414;-64
2020/12/19 09:38:48;;;;;;;9.60;8.60;;;10.00;1.00;;;;;;4992965;28;20419;-65
2020/12/19 09:41:15;;;;;;;9.82;8.48;;;10.00;1.00;;;;;;4993490;28;20421;-65
2020/12/19 09:43:41;;;;;;;10.20;8.65;;;10.10;1.00;;;;;;4993148;28;20423;-65
2020/12/19 09:46:07;;;;;;;9.18;8.27;;;10.10;1.00;;;;;;5006449;28;20482;-63
2020/12/19 09:48:33;;;;;;;8.90;8.00;;;10.20;1.00;;;;;;5011224;28;20479;-64
2020/12/19 09:50:59;;;;;;;9.23;7.70;;;10.10;1.00;;;;;;5011828;28;20420;-65
2020/12/19 09:53:26;;;;;;;9.00;7.50;;;10.20;1.00;;;;;;5012111;28;20432;-65
2020/12/19 09:55:52;;;;;;;8.85;7.40;;;10.20;1.00;;;;;;5012317;28;20583;-66
2020/12/19 09:58:18;;;;;;;11.75;8.20;;;10.30;1.00;;;;;;5011928;28;20890;-65
2020/12/19 10:00:44;;;;;;;8.77;7.88;;;10.30;1.00;;;;;;5012055;28;20420;-65
2020/12/19 10:03:10;;;;;;;9.48;8.02;;;10.40;1.00;;;;;;5011670;28;20413;-65
2020/12/19 10:05:37;;;;;;;10.00;8.40;;;10.50;1.00;;;;;;5011991;28;20759;-65
2020/12/19 10:08:03;;;;;;;8.45;7.57;;;10.60;1.00;;;;;;5011958;28;20423;-65
2020/12/19 10:10:30;;;;;;;9.20;7.18;;;10.70;1.00;;;;;;5011611;28;20428;-66
2020/12/19 10:12:56;;;;;;;8.55;7.30;;;10.60;1.00;;;;;;5011862;28;20429;-66
2020/12/19 10:15:22;;;;;;;8.32;7.35;;;10.70;1.00;;;;;;5011911;28;20425;-66
2020/12/19 10:17:49;;;;;;;8.93;7.15;;;10.70;1.00;;;;;;5011885;28;20798;-66
2020/12/19 10:20:15;;;;;;;7.90;7.10;;;10.70;1.00;;;;;;5011543;28;20409;-66
2020/12/19 10:22:41;;;;;;;7.80;6.75;;;10.80;1.00;;;;;;5011537;28;20409;-66
2020/12/19 10:25:07;;;;;;;7.70;6.90;;;10.90;1.00;;;;;;5012169;28;20423;-66
2020/12/19 10:27:34;;;;;;;7.20;6.50;;;10.90;1.00;;;;;;5011926;28;20832;-66
2020/12/19 10:30:01;;;;;;;7.68;6.60;;;10.90;1.00;;;;;;5011456;28;20416;-65
2020/12/19 10:32:27;;;;;;;9.10;7.05;;;11.00;1.00;;;;;;5011899;28;20447;-66
2020/12/19 10:34:53;;;;;;;8.48;6.82;;;10.90;1.00;;;;;;5011831;28;20471;-66
2020/12/19 10:37:19;;;;;;;8.13;7.32;;;10.80;1.00;;;;;;5011557;28;20417;-65
2020/12/19 10:39:45;;;;;;;7.68;6.70;;;10.90;1.00;;;;;;5011137;28;20421;-65
2020/12/19 10:42:12;;;;;;;6.95;6.20;;;11.00;1.00;;;;;;5011671;28;20420;-66
2020/12/19 10:44:39;;;;;;;7.60;6.43;;;11.10;1.00;;;;;;5011531;28;20448;-65
2020/12/19 10:47:05;;;;;;;7.25;6.28;;;11.10;1.00;;;;;;5011478;28;20424;-65
2020/12/19 10:49:31;;;;;;;7.30;6.00;;;11.10;1.00;;;;;;5011436;28;20413;-65
2020/12/19 10:51:57;;;;;;;6.82;6.22;;;11.10;1.00;;;;;;5011271;28;20441;-66
2020/12/19 10:54:23;;;;;;;7.88;6.28;;;11.10;1.00;;;;;;5011478;28;20439;-66
2020/12/19 10:56:53;;;;;;;7.07;6.28;;;11.30;1.00;;;;;;5012261;28;20420;-64
2020/12/19 10:59:19;;;;;;;7.32;5.93;;;11.30;1.00;;;;;;5011635;28;20774;-66
2020/12/19 11:01:46;;;;;;;8.00;5.90;;;11.30;1.00;;;;;;5016984;28;20423;-64
2020/12/19 11:04:12;;;;;;;5.95;5.35;;;11.40;1.00;;;;;;5017797;28;20421;-63
2020/12/19 11:06:39;;;;;;;8.90;5.88;;;11.50;1.00;;;;;;5017801;28;20471;-63
2020/12/19 11:09:05;;;;;;;6.88;5.63;;;11.50;1.00;;;;;;5017874;28;20416;-63
2020/12/19 11:11:31;;;;;;;5.93;5.30;;;11.50;1.00;;;;;;5017906;28;20935;-64
2020/12/19 11:13:57;;;;;;;6.45;5.85;;;11.60;1.00;;;;;;5017801;28;20428;-65
2020/12/19 11:16:24;;;;;;;6.65;5.72;;;11.70;1.00;;;;;;5018056;28;20424;-65
2020/12/19 11:18:51;;;;;;;6.28;5.60;;;11.80;1.00;;;;;;5017496;28;20474;-64
2020/12/19 11:21:18;;;;;;;6.80;5.20;;;11.80;1.00;;;;;;5015660;28;20833;-65
2020/12/19 11:23:45;;;;;;;6.13;5.20;;;11.90;1.00;;;;;;5015989;28;20417;-63
2020/12/19 11:26:11;;;;;;;5.20;4.70;;;11.90;1.00;;;;;;5017536;28;20436;-65
2020/12/19 11:28:38;;;;;;;6.47;5.10;;;11.90;1.00;;;;;;5017643;28;20420;-64
2020/12/19 11:31:04;;;;;;;5.20;4.70;;;11.90;1.00;;;;;;5017858;28;20420;-64
2020/12/19 11:33:30;;;;;;;4.90;4.40;;;12.00;1.00;;;;;;5019544;28;20429;-65
2020/12/19 11:35:59;;;;;;;5.07;4.57;;;12.00;1.00;;;;;;5017628;28;20459;-65
2020/12/19 11:38:25;;;;;;;5.53;4.80;;;12.00;1.00;;;;;;5017531;28;20762;-65
2020/12/19 11:40:51;;;;;;;5.35;4.70;;;12.00;1.00;;;;;;5017998;28;20420;-65
2020/12/19 11:43:17;;;;;;;5.10;4.60;;;12.00;1.00;;;;;;5017420;28;20463;-65
2020/12/19 11:45:43;;;;;;;4.60;4.20;;;12.10;1.00;;;;;;5017776;28;20416;-65
2020/12/19 11:48:09;;;;;;;5.22;4.20;;;12.20;1.00;;;;;;5017299;28;20421;-69
2020/12/19 11:50:36;;;;;;;4.85;4.45;;;12.20;1.00;;;;;;5017135;28;20421;-64
2020/12/19 11:53:03;;;;;;;4.20;3.80;;;12.20;1.00;;;;;;5022273;28;20432;-64
2020/12/19 11:55:29;;;;;;;4.53;4.03;;;12.30;1.00;;;;;;5017361;28;20959;-64
2020/12/19 11:57:55;;;;;;;4.82;4.00;;;12.30;1.00;;;;;;5017437;28;20924;-63
2020/12/19 12:00:21;;;;;;;4.57;3.70;;;12.30;1.00;;;;;;5017326;28;20423;-64
2020/12/19 12:02:47;;;;;;;4.55;4.15;;;12.30;1.00;;;;;;5017318;28;20409;-65
2020/12/19 12:05:13;;;;;;;4.55;4.10;;;12.30;1.00;;;;;;5018056;28;20412;-65
2020/12/19 12:07:39;;;;;;;3.60;3.10;;;12.30;1.00;;;;;;5017769;28;20447;-65
2020/12/19 12:10:06;;;;;;;5.75;3.47;;;12.20;1.00;;;;;;5017262;28;20888;-64
2020/12/19 12:12:32;;;;;;;4.60;4.00;;;12.20;1.00;;;;;;5014579;28;20810;-67
2020/12/19 12:14:59;;;;;;;5.25;3.90;;;12.20;1.00;;;;;;5013927;28;20429;-65
2020/12/19 12:17:25;;;;;;;4.18;3.78;;;12.20;1.00;;;;;;5014170;28;20428;-65
2020/12/19 12:19:51;;;;;;;4.00;3.60;;;12.10;1.00;;;;;;5014557;28;20420;-66
2020/12/19 12:22:17;;;;;;;3.80;3.40;;;12.00;1.00;;;;;;5014680;28;20420;-65
2020/12/19 12:24:43;;;;;;;4.50;3.60;;;12.10;1.00;;;;;;5014825;28;20500;-66
2020/12/19 12:27:11;;;;;;;4.20;3.80;;;12.20;1.00;;;;;;5014463;28;20421;-66
2020/12/19 12:29:37;;;;;;;5.30;3.63;;;12.10;1.00;;;;;;5013719;28;20424;-67
2020/12/19 12:32:05;;;;;;;4.38;3.47;;;12.20;1.00;;;;;;5013410;28;20416;-64
2020/12/19 12:34:31;;;;;;;3.50;3.20;;;12.20;1.00;;;;;;5013706;28;20436;-63
2020/12/19 12:36:57;;;;;;;3.80;3.30;;;12.30;1.00;;;;;;5013510;28;20964;-64
2020/12/19 12:39:23;;;;;;;4.50;3.90;;;12.50;1.00;;;;;;5013131;28;20897;-65
2020/12/19 12:41:49;;;;;;;4.82;3.65;;;12.50;1.00;;;;;;5013454;28;20798;-64
2020/12/19 12:44:16;;;;;;;3.73;3.40;;;12.40;1.00;;;;;;5013112;28;20415;-65
2020/12/19 12:46:42;;;;;;;4.20;3.80;;;12.30;1.00;;;;;;5013404;28;20572;-65
2020/12/19 12:49:08;;;;;;;3.92;3.10;;;12.20;1.00;;;;;;5013380;28;20538;-65
2020/12/19 12:51:34;;;;;;;4.70;4.10;;;12.20;1.00;;;;;;5013516;28;20408;-65
2020/12/19 12:54:01;;;;;;;4.15;3.70;;;12.10;1.00;;;;;;5013332;28;20436;-65
2020/12/19 12:56:27;;;;;;;4.17;3.57;;;12.20;1.00;;;;;;5013257;28;20412;-65